Time;durP1;ratioP1;P1;durP2;ratioP2;P2;SDS_P1;SDS_P2;PMS_P1;PMS_P2;Temp;Humidity;BMP_temperature;BMP_pressure;BME280_temperature;BME280_humidity;BME280_pressure;Samples;Min_cycle;Max_cycle;Signal;HPM_P1;HPM_P2
2023/02/09 00:01:51;;;;;;;;;;;17.40;60.60;;;;;;5039918;28;918;-71
2023/02/09 00:04:16;;;;;;;;;;;17.50;60.60;;;;;;5038892;28;935;-71
2023/02/09 00:06:42;;;;;;;;;;;17.40;60.60;;;;;;5039704;28;1970;-71
2023/02/09 00:09:07;;;;;;;;;;;17.50;60.70;;;;;;5071797;28;1283;-71
2023/02/09 00:14:17;;;;;;;;;;;17.50;60.70;;;;;;5038406;28;804;-71
2023/02/09 00:16:43;;;;;;;;;;;17.50;60.70;;;;;;5070185;28;911;-71
2023/02/09 00:19:08;;;;;;;;;;;17.40;60.60;;;;;;5069135;28;1334;-71
2023/02/09 00:21:34;;;;;;;;;;;17.40;60.60;;;;;;5038098;28;1026;-71
2023/02/09 00:23:59;;;;;;;;;;;17.40;60.70;;;;;;5069412;28;863;-71
2023/02/09 00:26:25;;;;;;;;;;;17.40;60.60;;;;;;5036315;28;871;-71
2023/02/09 00:28:50;;;;;;;;;;;17.40;60.70;;;;;;5038141;28;1898;-71
2023/02/09 00:31:16;;;;;;;;;;;17.40;60.70;;;;;;5042181;28;789;-71
2023/02/09 00:33:41;;;;;;;;;;;17.40;60.70;;;;;;5041225;28;1293;-71
2023/02/09 00:36:07;;;;;;;;;;;17.40;60.70;;;;;;5071182;28;1308;-71
2023/02/09 00:38:33;;;;;;;;;;;17.40;60.70;;;;;;5038303;28;836;-71
2023/02/09 00:40:58;;;;;;;;;;;17.40;60.70;;;;;;5041479;28;1374;-71
2023/02/09 00:43:24;;;;;;;;;;;17.40;61.50;;;;;;5041600;28;1019;-71
2023/02/09 00:45:49;;;;;;;;;;;17.40;60.70;;;;;;5037386;28;860;-71
2023/02/09 00:48:15;;;;;;;;;;;17.40;60.70;;;;;;5037561;28;1894;-71
2023/02/09 00:50:40;;;;;;;;;;;17.40;60.70;;;;;;5036957;28;1231;-71
2023/02/09 00:53:05;;;;;;;;;;;17.40;60.70;;;;;;5032248;28;1070;-71
2023/02/09 00:55:31;;;;;;;;;;;17.40;60.70;;;;;;5068207;28;867;-71
2023/02/09 00:57:56;;;;;;;;;;;17.40;60.70;;;;;;5040541;28;888;-71
2023/02/09 01:00:22;;;;;;;;;;;17.40;60.80;;;;;;5037245;28;1239;-71
2023/02/09 01:02:47;;;;;;;;;;;17.40;60.70;;;;;;5040060;28;936;-71
2023/02/09 01:05:13;;;;;;;;;;;17.40;60.70;;;;;;5033373;28;1323;-71
2023/02/09 01:07:38;;;;;;;;;;;17.40;60.70;;;;;;5038763;28;1965;-71
2023/02/09 01:10:04;;;;;;;;;;;17.40;60.70;;;;;;5041334;28;1310;-71
2023/02/09 01:12:29;;;;;;;;;;;17.40;60.80;;;;;;5068743;28;891;-71
2023/02/09 01:14:55;;;;;;;;;;;17.40;60.70;;;;;;5040310;28;942;-71
2023/02/09 01:17:20;;;;;;;;;;;17.40;60.80;;;;;;5068571;28;814;-71
2023/02/09 01:19:49;;;;;;;;;;;17.40;60.80;;;;;;5041093;28;1231;-71
2023/02/09 01:22:15;;;;;;;;;;;17.40;61.60;;;;;;5037789;28;1290;-71
2023/02/09 01:24:40;;;;;;;;;;;17.40;60.80;;;;;;5041406;28;1254;-71
2023/02/09 01:27:06;;;;;;;;;;;17.40;60.80;;;;;;5040060;28;1944;-71
2023/02/09 01:29:31;;;;;;;;;;;17.40;60.80;;;;;;5037648;28;1377;-71
2023/02/09 01:31:57;;;;;;;;;;;17.40;60.80;;;;;;5038885;28;805;-71
2023/02/09 01:34:22;;;;;;;;;;;17.40;60.80;;;;;;5039425;28;1375;-71
2023/02/09 01:36:47;;;;;;;;;;;17.30;60.70;;;;;;5038493;28;952;-71
2023/02/09 01:39:13;;;;;;;;;;;17.30;60.70;;;;;;5069249;28;1292;-71
2023/02/09 01:41:39;;;;;;;;;;;17.40;60.80;;;;;;5069332;28;836;-71
2023/02/09 01:44:04;;;;;;;;;;;17.40;60.80;;;;;;5035167;28;827;-71
2023/02/09 01:46:30;;;;;;;;;;;17.30;60.70;;;;;;5039006;28;1891;-71
2023/02/09 01:48:58;;;;;;;;;;;17.40;60.80;;;;;;5041138;28;1247;-71
2023/02/09 01:51:23;;;;;;;;;;;17.30;60.80;;;;;;5068410;28;828;-71
2023/02/09 01:53:49;;;;;;;;;;;17.30;60.80;;;;;;5037634;28;915;-69
2023/02/09 01:56:16;;;;;;;;;;;17.30;60.80;;;;;;5068885;28;914;-69
2023/02/09 01:58:41;;;;;;;;;;;17.30;60.80;;;;;;5072348;28;903;-71
2023/02/09 02:01:07;;;;;;;;;;;17.30;60.80;;;;;;5038667;28;1203;-71
2023/02/09 02:03:32;;;;;;;;;;;17.30;60.80;;;;;;5040239;28;908;-71
2023/02/09 02:05:59;;;;;;;;;;;17.30;60.80;;;;;;5070983;28;875;-71
2023/02/09 02:08:27;;;;;;;;;;;17.30;60.80;;;;;;5038907;28;1906;-71
2023/02/09 02:10:52;;;;;;;;;;;17.30;60.80;;;;;;5040551;28;1270;-71
2023/02/09 02:13:18;;;;;;;;;;;17.30;60.80;;;;;;5041201;28;853;-71
2023/02/09 02:15:50;;;;;;;;;;;17.30;60.90;;;;;;5042134;28;911;-70
2023/02/09 02:18:28;;;;;;;;;;;17.30;60.80;;;;;;5040992;28;974;-70
2023/02/09 02:20:56;;;;;;;;;;;17.30;60.80;;;;;;5041649;28;1277;-71
2023/02/09 02:23:36;;;;;;;;;;;17.30;60.80;;;;;;5042441;28;876;-71
2023/02/09 02:26:14;;;;;;;;;;;17.30;60.90;;;;;;5072258;28;1400;-71
2023/02/09 02:28:42;;;;;;;;;;;17.30;60.80;;;;;;5074090;28;1959;-71
2023/02/09 02:31:28;;;;;;;;;;;17.30;60.80;;;;;;5041372;28;1279;-71
2023/02/09 02:34:17;;;;;;;;;;;17.30;60.80;;;;;;5076836;28;1300;-71
2023/02/09 02:36:54;;;;;;;;;;;17.30;60.80;;;;;;5024026;28;1112;-71
2023/02/09 02:39:21;;;;;;;;;;;17.30;60.80;;;;;;5041226;28;1325;-71
2023/02/09 02:44:41;;;;;;;;;;;17.30;60.90;;;;;;5066580;28;856;-71
2023/02/09 02:47:07;;;;;;;;;;;17.30;60.90;;;;;;5074068;28;1939;-72
2023/02/09 02:49:43;;;;;;;;;;;17.30;60.90;;;;;;5072279;28;1232;-70
2023/02/09 02:52:09;;;;;;;;;;;17.30;60.90;;;;;;5072877;28;846;-71
2023/02/09 02:54:36;;;;;;;;;;;17.30;60.90;;;;;;5058361;28;1356;-71
2023/02/09 02:57:03;;;;;;;;;;;17.30;60.90;;;;;;5062986;28;1163;-71
2023/02/09 02:59:32;;;;;;;;;;;17.30;60.90;;;;;;5073758;28;1287;-72
2023/02/09 03:02:03;;;;;;;;;;;17.30;60.90;;;;;;5071666;28;1280;-72
2023/02/09 03:04:29;;;;;;;;;;;17.20;60.80;;;;;;5071383;28;1264;-70
2023/02/09 03:06:54;;;;;;;;;;;17.20;60.90;;;;;;5073502;28;1910;-71
2023/02/09 03:09:20;;;;;;;;;;;17.30;60.90;;;;;;5039454;28;1271;-72
2023/02/09 03:11:46;;;;;;;;;;;17.20;60.90;;;;;;5040909;28;927;-71
2023/02/09 03:14:21;;;;;;;;;;;17.30;60.90;;;;;;5074808;28;824;-72
2023/02/09 03:16:47;;;;;;;;;;;17.20;60.90;;;;;;5038792;28;843;-71
2023/02/09 03:19:39;;;;;;;;;;;17.30;60.90;;;;;;5070625;28;1268;-70
2023/02/09 03:22:04;;;;;;;;;;;17.20;60.90;;;;;;5025590;28;1152;-70
2023/02/09 03:24:36;;;;;;;;;;;17.30;60.90;;;;;;5039797;28;967;-70
2023/02/09 03:27:09;;;;;;;;;;;17.30;60.90;;;;;;5042225;28;1911;-70
2023/02/09 03:29:35;;;;;;;;;;;17.20;60.90;;;;;;5074824;28;1370;-70
2023/02/09 03:32:00;;;;;;;;;;;17.30;61.00;;;;;;5073960;28;1059;-70
2023/02/09 03:34:26;;;;;;;;;;;17.30;60.90;;;;;;5069645;28;1439;-70
2023/02/09 03:36:52;;;;;;;;;;;17.30;60.90;;;;;;5072285;28;859;-70
2023/02/09 03:39:18;;;;;;;;;;;17.20;60.90;;;;;;5072686;28;1358;-70
2023/02/09 03:41:44;;;;;;;;;;;17.30;61.00;;;;;;5043964;28;1405;-70
2023/02/09 03:44:27;;;;;;;;;;;17.30;60.90;;;;;;5038907;28;950;-70
2023/02/09 03:46:54;;;;;;;;;;;17.30;60.90;;;;;;5069927;28;1911;-70
2023/02/09 03:49:19;;;;;;;;;;;17.30;61.00;;;;;;5070384;28;1260;-70
2023/02/09 03:51:44;;;;;;;;;;;17.20;60.90;;;;;;5038977;28;907;-70
2023/02/09 03:54:10;;;;;;;;;;;17.20;60.90;;;;;;5040361;28;836;-71
2023/02/09 03:56:36;;;;;;;;;;;17.20;60.90;;;;;;5039270;28;872;-72
2023/02/09 03:59:02;;;;;;;;;;;17.20;60.90;;;;;;5038917;28;1267;-70
2023/02/09 04:01:28;;;;;;;;;;;17.20;60.90;;;;;;5042215;28;1155;-70
2023/02/09 04:03:53;;;;;;;;;;;17.20;60.90;;;;;;5041945;28;826;-71
2023/02/09 04:06:18;;;;;;;;;;;17.20;60.90;;;;;;5036172;28;962;-70
2023/02/09 04:08:44;;;;;;;;;;;17.20;61.00;;;;;;5039960;28;1898;-71
2023/02/09 04:11:09;;;;;;;;;;;17.20;61.00;;;;;;5037647;28;1398;-70
2023/02/09 04:13:35;;;;;;;;;;;17.20;61.00;;;;;;5037681;28;918;-71
2023/02/09 04:16:00;;;;;;;;;;;17.20;61.00;;;;;;5038550;28;848;-72
2023/02/09 04:18:26;;;;;;;;;;;17.20;61.00;;;;;;5038912;28;888;-70
2023/02/09 04:20:51;;;;;;;;;;;17.20;61.00;;;;;;5040156;28;1251;-70
2023/02/09 04:23:17;;;;;;;;;;;17.20;61.00;;;;;;5040315;28;956;-72
2023/02/09 04:25:42;;;;;;;;;;;17.20;60.90;;;;;;5036288;28;927;-68
2023/02/09 04:28:08;;;;;;;;;;;17.30;60.90;;;;;;5032829;28;1955;-69
2023/02/09 04:30:33;;;;;;;;;;;17.30;60.90;;;;;;5041210;28;1961;-71
2023/02/09 04:32:58;;;;;;;;;;;17.30;60.80;;;;;;5043279;28;1288;-68
2023/02/09 04:35:24;;;;;;;;;;;17.30;60.60;;;;;;5037169;28;1018;-70
2023/02/09 04:37:49;;;;;;;;;;;17.30;60.50;;;;;;5038874;28;936;-73
2023/02/09 04:40:15;;;;;;;;;;;17.40;60.40;;;;;;5038303;28;1372;-69
2023/02/09 04:42:43;;;;;;;;;;;17.40;60.20;;;;;;5070769;28;994;-69
2023/02/09 04:45:09;;;;;;;;;;;17.50;60.10;;;;;;5039218;28;801;-69
2023/02/09 04:47:34;;;;;;;;;;;17.50;60.00;;;;;;5042241;28;1991;-70
2023/02/09 04:49:59;;;;;;;;;;;17.60;60.60;;;;;;5037867;28;1628;-69
2023/02/09 04:52:25;;;;;;;;;;;17.60;59.80;;;;;;5040222;28;1274;-69
2023/02/09 04:54:50;;;;;;;;;;;17.60;59.70;;;;;;5036324;28;892;-69
2023/02/09 05:00:00;;;;;;;;;;;17.70;59.60;;;;;;5037818;28;1279;-69
2023/02/09 05:02:25;;;;;;;;;;;17.70;60.10;;;;;;5040202;28;803;-69
2023/02/09 05:04:51;;;;;;;;;;;17.70;59.40;;;;;;5038234;28;996;-69
2023/02/09 05:07:16;;;;;;;;;;;17.70;59.40;;;;;;5036811;28;1959;-69
2023/02/09 05:09:42;;;;;;;;;;;17.70;59.40;;;;;;5038160;28;1264;-69
2023/02/09 05:12:10;;;;;;;;;;;17.80;59.30;;;;;;5058649;28;828;-69
2023/02/09 05:14:36;;;;;;;;;;;17.80;59.30;;;;;;5038008;28;982;-69
2023/02/09 05:17:01;;;;;;;;;;;17.80;59.20;;;;;;5038389;28;820;-69
2023/02/09 05:19:27;;;;;;;;;;;17.80;59.20;;;;;;5041161;28;1375;-70
2023/02/09 05:21:52;;;;;;;;;;;17.80;59.20;;;;;;5037219;28;1073;-71
2023/02/09 05:24:18;;;;;;;;;;;17.80;59.10;;;;;;5068733;28;860;-71
2023/02/09 05:26:43;;;;;;;;;;;17.80;59.10;;;;;;5073215;28;1953;-71
2023/02/09 05:29:09;;;;;;;;;;;17.80;59.10;;;;;;5038434;28;1272;-71
2023/02/09 05:31:34;;;;;;;;;;;17.80;59.10;;;;;;5038861;28;1293;-71
2023/02/09 05:34:00;;;;;;;;;;;17.80;59.10;;;;;;5071359;28;1037;-71
2023/02/09 05:36:25;;;;;;;;;;;17.80;59.00;;;;;;5071470;28;1305;-70
2023/02/09 05:38:51;;;;;;;;;;;17.90;59.10;;;;;;5038701;28;1276;-69
2023/02/09 05:44:00;;;;;;;;;;;17.80;59.00;;;;;;5041364;28;757;-69
2023/02/09 05:46:26;;;;;;;;;;;17.80;59.00;;;;;;5059747;28;1460;-69
2023/02/09 05:48:51;;;;;;;;;;;17.80;59.00;;;;;;5041281;28;1898;-68
2023/02/09 05:51:17;;;;;;;;;;;17.90;59.10;;;;;;5041843;28;1038;-69
2023/02/09 05:53:42;;;;;;;;;;;17.90;59.10;;;;;;5042959;28;1268;-68
2023/02/09 05:56:08;;;;;;;;;;;18.00;59.10;;;;;;5042138;28;813;-68
2023/02/09 05:58:33;;;;;;;;;;;18.10;58.90;;;;;;5038403;28;958;-68
2023/02/09 06:00:58;;;;;;;;;;;18.30;58.80;;;;;;5040971;28;1307;-67
2023/02/09 06:03:24;;;;;;;;;;;18.40;58.50;;;;;;5043614;28;1260;-69
2023/02/09 06:05:49;;;;;;;;;;;18.60;58.10;;;;;;5040347;28;955;-69
2023/02/09 06:08:15;;;;;;;;;;;18.80;57.80;;;;;;5039504;28;1936;-68
2023/02/09 06:10:40;;;;;;;;;;;18.90;57.30;;;;;;5040658;28;1264;-68
2023/02/09 06:13:06;;;;;;;;;;;19.10;57.10;;;;;;5043352;28;896;-69
2023/02/09 06:15:31;;;;;;;;;;;19.20;56.80;;;;;;5040924;28;813;-70
2023/02/09 06:17:57;;;;;;;;;;;19.40;56.50;;;;;;5075943;28;904;-70
2023/02/09 06:20:22;;;;;;;;;;;19.50;56.20;;;;;;5075076;28;1251;-70
2023/02/09 06:22:48;;;;;;;;;;;19.60;56.00;;;;;;5044231;28;872;-70
2023/02/09 06:25:13;;;;;;;;;;;19.70;55.80;;;;;;5042902;28;951;-71
2023/02/09 06:27:39;;;;;;;;;;;19.80;55.60;;;;;;5073067;28;1955;-72
2023/02/09 06:30:05;;;;;;;;;;;19.90;55.40;;;;;;5044255;28;1255;-71
2023/02/09 06:32:30;;;;;;;;;;;20.00;55.20;;;;;;5071145;28;912;-71
2023/02/09 06:34:55;;;;;;;;;;;20.10;55.10;;;;;;5041170;28;1130;-72
2023/02/09 06:37:21;;;;;;;;;;;20.20;55.00;;;;;;5042127;28;911;-70
2023/02/09 06:39:46;;;;;;;;;;;20.20;54.80;;;;;;5075746;28;1361;-70
2023/02/09 06:42:12;;;;;;;;;;;20.30;54.70;;;;;;5039800;28;769;-70
2023/02/09 06:44:37;;;;;;;;;;;20.40;54.70;;;;;;5074047;28;889;-70
2023/02/09 06:47:03;;;;;;;;;;;20.40;54.60;;;;;;5042912;28;1898;-70
2023/02/09 06:49:29;;;;;;;;;;;20.40;54.40;;;;;;5070362;28;1345;-70
2023/02/09 06:51:54;;;;;;;;;;;20.40;54.40;;;;;;5072277;28;804;-71
2023/02/09 06:54:20;;;;;;;;;;;20.40;54.40;;;;;;5038904;28;857;-70
2023/02/09 06:56:46;;;;;;;;;;;20.40;54.80;;;;;;5038135;28;800;-69
2023/02/09 06:59:12;;;;;;;;;;;20.40;54.40;;;;;;5073432;28;1353;-69
2023/02/09 07:01:37;;;;;;;;;;;20.40;54.40;;;;;;5074587;28;808;-68
2023/02/09 07:04:03;;;;;;;;;;;20.40;54.40;;;;;;5038038;28;1266;-68
2023/02/09 07:06:28;;;;;;;;;;;20.40;55.10;;;;;;5039569;28;944;-68
2023/02/09 07:08:54;;;;;;;;;;;20.30;54.60;;;;;;5037960;28;1957;-69
2023/02/09 07:11:19;;;;;;;;;;;20.30;54.70;;;;;;5040680;28;1072;-68
2023/02/09 07:13:45;;;;;;;;;;;20.30;54.80;;;;;;5041383;28;848;-69
2023/02/09 07:16:11;;;;;;;;;;;20.30;54.90;;;;;;5074066;28;855;-69
2023/02/09 07:18:36;;;;;;;;;;;20.30;55.00;;;;;;5038443;28;875;-69
2023/02/09 07:21:06;;;;;;;;;;;20.20;55.00;;;;;;5074492;28;1270;-68
2023/02/09 07:23:32;;;;;;;;;;;20.20;55.20;;;;;;5072160;28;899;-68
2023/02/09 07:26:01;;;;;;;;;;;20.20;55.30;;;;;;5072107;28;861;-69
2023/02/09 07:28:27;;;;;;;;;;;20.10;55.40;;;;;;5040456;28;1957;-69
2023/02/09 07:30:52;;;;;;;;;;;20.10;55.50;;;;;;5040610;28;1373;-69
2023/02/09 07:33:18;;;;;;;;;;;20.10;55.60;;;;;;5038244;28;1268;-69
2023/02/09 07:35:44;;;;;;;;;;;20.00;55.60;;;;;;5042032;28;1248;-68
2023/02/09 07:38:09;;;;;;;;;;;20.00;55.70;;;;;;5073492;28;903;-69
2023/02/09 07:40:35;;;;;;;;;;;20.00;55.70;;;;;;5040867;28;1270;-69
2023/02/09 07:43:01;;;;;;;;;;;19.90;55.70;;;;;;5040166;28;827;-69
2023/02/09 07:45:26;;;;;;;;;;;19.90;55.70;;;;;;5073296;28;1022;-68
2023/02/09 07:47:52;;;;;;;;;;;19.90;55.80;;;;;;5038261;28;1902;-69
2023/02/09 07:50:17;;;;;;;;;;;19.90;55.80;;;;;;5040066;28;1240;-69
2023/02/09 07:52:43;;;;;;;;;;;19.80;55.90;;;;;;5038692;28;850;-69
2023/02/09 07:55:08;;;;;;;;;;;19.80;56.50;;;;;;5038589;28;838;-69
2023/02/09 07:57:34;;;;;;;;;;;19.80;56.00;;;;;;5039657;28;847;-69
2023/02/09 07:59:59;;;;;;;;;;;19.80;56.10;;;;;;5039868;28;1688;-69
2023/02/09 08:02:25;;;;;;;;;;;19.70;56.10;;;;;;5039140;28;809;-69
2023/02/09 08:04:51;;;;;;;;;;;19.70;56.20;;;;;;5071636;28;967;-70
2023/02/09 08:07:17;;;;;;;;;;;19.70;56.20;;;;;;5039230;28;1953;-70
2023/02/09 08:09:45;;;;;;;;;;;19.70;56.30;;;;;;5042365;28;1228;-70
2023/02/09 08:12:10;;;;;;;;;;;19.70;56.30;;;;;;5039654;28;923;-70
2023/02/09 08:14:38;;;;;;;;;;;19.70;56.40;;;;;;5038694;28;845;-70
2023/02/09 08:17:20;;;;;;;;;;;19.60;56.40;;;;;;5042540;28;1266;-71
2023/02/09 08:19:57;;;;;;;;;;;19.60;56.90;;;;;;5066885;28;1842;-71
2023/02/09 08:22:23;;;;;;;;;;;19.60;57.30;;;;;;5070788;28;1342;-70
2023/02/09 08:24:49;;;;;;;;;;;19.50;57.30;;;;;;5069016;28;1437;-71
2023/02/09 08:27:14;;;;;;;;;;;19.50;57.30;;;;;;5054573;28;1902;-71
2023/02/09 08:29:40;;;;;;;;;;;19.50;57.50;;;;;;5069472;28;1461;-70
2023/02/09 08:32:05;;;;;;;;;;;19.50;57.90;;;;;;5038066;28;899;-70
2023/02/09 08:34:30;;;;;;;;;;;19.50;58.00;;;;;;5038383;28;2045;-71
2023/02/09 08:36:56;;;;;;;;;;;19.50;58.10;;;;;;5036815;28;1935;-72
2023/02/09 08:39:21;;;;;;;;;;;19.40;58.30;;;;;;5040044;28;1525;-71
2023/02/09 08:41:47;;;;;;;;;;;19.40;58.30;;;;;;5036342;28;943;-71
2023/02/09 08:44:13;;;;;;;;;;;19.50;58.70;;;;;;5038271;28;1073;-71
2023/02/09 08:46:38;;;;;;;;;;;19.40;58.70;;;;;;5071098;28;864;-71
2023/02/09 08:49:03;;;;;;;;;;;19.50;58.90;;;;;;5036962;28;1938;-71
2023/02/09 08:51:29;;;;;;;;;;;19.50;59.20;;;;;;5037058;28;1038;-71
2023/02/09 08:53:54;;;;;;;;;;;19.50;59.20;;;;;;5038922;28;917;-70
2023/02/09 08:56:20;;;;;;;;;;;19.40;59.20;;;;;;5069407;28;820;-71
2023/02/09 08:58:46;;;;;;;;;;;19.50;59.50;;;;;;5068508;28;990;-70
2023/02/09 09:01:12;;;;;;;;;;;19.40;59.40;;;;;;5039333;28;1280;-71
2023/02/09 09:03:37;;;;;;;;;;;19.50;59.50;;;;;;5037903;28;1328;-71
2023/02/09 09:06:03;;;;;;;;;;;19.40;59.50;;;;;;5038371;28;1075;-71
2023/02/09 09:08:29;;;;;;;;;;;19.40;59.40;;;;;;5056409;28;1993;-71
2023/02/09 09:10:55;;;;;;;;;;;19.40;59.50;;;;;;5069771;28;1205;-71
2023/02/09 09:13:20;;;;;;;;;;;19.40;59.60;;;;;;5037784;28;875;-71
2023/02/09 09:15:46;;;;;;;;;;;19.40;59.50;;;;;;5066885;28;1054;-71
2023/02/09 09:18:11;;;;;;;;;;;19.40;59.70;;;;;;5075112;28;947;-70
2023/02/09 09:20:38;;;;;;;;;;;19.40;59.70;;;;;;5043602;28;1294;-70
2023/02/09 09:23:03;;;;;;;;;;;19.40;59.60;;;;;;5071136;28;862;-70
2023/02/09 09:25:28;;;;;;;;;;;19.40;59.70;;;;;;5038865;28;942;-70
2023/02/09 09:27:54;;;;;;;;;;;19.40;59.60;;;;;;5071752;28;1897;-71
2023/02/09 09:30:19;;;;;;;;;;;19.40;59.70;;;;;;5071789;28;1324;-70
2023/02/09 09:32:45;;;;;;;;;;;19.40;59.70;;;;;;5041033;28;820;-70
2023/02/09 09:35:10;;;;;;;;;;;19.40;59.80;;;;;;5040439;28;1313;-71
2023/02/09 09:37:36;;;;;;;;;;;19.40;59.70;;;;;;5038913;28;888;-70
2023/02/09 09:40:01;;;;;;;;;;;19.40;59.70;;;;;;5037986;28;1355;-70
2023/02/09 09:42:30;;;;;;;;;;;19.50;59.70;;;;;;5036492;28;872;-71
2023/02/09 09:44:56;;;;;;;;;;;19.40;59.60;;;;;;5070515;28;1329;-70
2023/02/09 09:47:25;;;;;;;;;;;19.50;59.60;;;;;;5036119;28;1898;-70
2023/02/09 09:49:50;;;;;;;;;;;19.50;59.60;;;;;;5070131;28;1389;-71
2023/02/09 09:52:22;;;;;;;;;;;19.50;59.80;;;;;;5037337;28;1089;-70
2023/02/09 09:54:48;;;;;;;;;;;19.50;59.80;;;;;;5070354;28;878;-70
2023/02/09 09:57:17;;;;;;;;;;;19.50;59.80;;;;;;5070095;28;907;-70
2023/02/09 09:59:42;;;;;;;;;;;19.50;59.90;;;;;;5070965;28;1266;-71
2023/02/09 10:02:15;;;;;;;;;;;19.50;59.90;;;;;;5039307;28;848;-71
2023/02/09 10:04:41;;;;;;;;;;;19.50;60.60;;;;;;5069670;28;1316;-71
2023/02/09 10:07:09;;;;;;;;;;;19.50;59.90;;;;;;5036638;28;1952;-71
2023/02/09 10:09:39;;;;;;;;;;;19.40;59.80;;;;;;5036894;28;1274;-71
2023/02/09 10:12:05;;;;;;;;;;;19.40;59.90;;;;;;5072057;28;1058;-70
2023/02/09 10:14:30;;;;;;;;;;;19.50;59.90;;;;;;5035022;28;2169;-69
2023/02/09 10:16:56;;;;;;;;;;;19.50;60.10;;;;;;5035370;28;2313;-69
2023/02/09 10:19:22;;;;;;;;;;;19.50;60.10;;;;;;5040995;28;1290;-70
2023/02/09 10:21:48;;;;;;;;;;;19.40;60.10;;;;;;5068855;28;894;-70
2023/02/09 10:24:15;;;;;;;;;;;19.40;60.10;;;;;;5041501;28;880;-70
2023/02/09 10:26:41;;;;;;;;;;;19.40;60.10;;;;;;5040305;28;856;-71
2023/02/09 10:29:10;;;;;;;;;;;19.40;60.20;;;;;;5071512;28;1953;-72
2023/02/09 10:31:42;;;;;;;;;;;19.40;60.20;;;;;;5038865;28;1196;-71
2023/02/09 10:34:07;;;;;;;;;;;19.40;60.20;;;;;;5072297;28;1295;-71
2023/02/09 10:36:52;;;;;;;;;;;19.40;60.30;;;;;;5041956;28;1620;-72
2023/02/09 10:39:19;;;;;;;;;;;19.40;60.30;;;;;;5072377;28;1275;-71
2023/02/09 10:41:46;;;;;;;;;;;19.30;60.30;;;;;;5075032;28;907;-72
2023/02/09 10:44:19;;;;;;;;;;;19.30;60.40;;;;;;5073115;28;851;-71
2023/02/09 10:46:46;;;;;;;;;;;19.30;60.60;;;;;;5069296;28;844;-71
2023/02/09 10:49:27;;;;;;;;;;;19.30;61.20;;;;;;5040047;28;1934;-72
2023/02/09 10:52:00;;;;;;;;;;;19.30;61.00;;;;;;5074445;28;962;-71
2023/02/09 10:54:26;;;;;;;;;;;19.30;61.20;;;;;;5074902;28;973;-71
2023/02/09 10:56:52;;;;;;;;;;;19.30;61.20;;;;;;5038291;28;890;-72
2023/02/09 10:59:21;;;;;;;;;;;19.30;61.20;;;;;;5043634;28;1366;-71
2023/02/09 11:01:52;;;;;;;;;;;19.30;61.10;;;;;;5072990;28;921;-71
2023/02/09 11:04:19;;;;;;;;;;;19.30;61.10;;;;;;5074549;28;1309;-70
2023/02/09 11:06:49;;;;;;;;;;;19.40;61.10;;;;;;5040953;28;1122;-71
2023/02/09 11:09:19;;;;;;;;;;;19.40;61.10;;;;;;5070009;28;1905;-71
2023/02/09 11:11:44;;;;;;;;;;;19.40;61.00;;;;;;5070679;28;934;-70
2023/02/09 11:14:16;;;;;;;;;;;19.40;60.80;;;;;;5039866;28;1262;-71
2023/02/09 11:17:01;;;;;;;;;;;19.40;60.70;;;;;;5071881;28;1891;-70
2023/02/09 11:19:26;;;;;;;;;;;19.40;60.70;;;;;;5073147;28;1927;-71
2023/02/09 11:21:58;;;;;;;;;;;19.40;61.20;;;;;;5043912;28;2065;-71
2023/02/09 11:24:23;;;;;;;;;;;19.50;60.80;;;;;;5042427;28;1437;-72
2023/02/09 11:26:52;;;;;;;;;;;19.40;60.70;;;;;;5074003;28;1252;-70
2023/02/09 11:29:23;;;;;;;;;;;19.50;60.70;;;;;;5076609;28;1262;-70
2023/02/09 11:31:53;;;;;;;;;;;19.40;60.60;;;;;;5070388;28;2188;-71
2023/02/09 11:34:24;;;;;;;;;;;19.50;60.70;;;;;;5058855;28;1960;-71
2023/02/09 11:36:53;;;;;;;;;;;19.50;60.80;;;;;;5041727;28;1327;-73
2023/02/09 11:39:44;;;;;;;;;;;19.50;60.70;;;;;;5072541;28;1456;-69
2023/02/09 11:45:20;;;;;;;;;;;19.50;60.80;;;;;;5046407;28;1238;-71
2023/02/09 11:47:56;;;;;;;;;;;19.50;60.90;;;;;;5071991;28;1989;-71
2023/02/09 11:50:37;;;;;;;;;;;19.50;60.90;;;;;;5071604;28;1377;-71
2023/02/09 11:53:20;;;;;;;;;;;19.40;60.90;;;;;;5054366;28;1772;-71
2023/02/09 11:55:46;;;;;;;;;;;19.40;60.80;;;;;;5070488;28;808;-71
2023/02/09 11:58:17;;;;;;;;;;;19.50;60.80;;;;;;5071300;28;878;-70
2023/02/09 12:00:44;;;;;;;;;;;19.40;60.80;;;;;;5071694;28;1284;-71
2023/02/09 12:03:10;;;;;;;;;;;19.40;60.70;;;;;;5075933;28;1026;-70
2023/02/09 12:05:36;;;;;;;;;;;19.40;60.70;;;;;;5056538;28;1707;-71
2023/02/09 12:08:05;;;;;;;;;;;19.40;60.90;;;;;;5074141;28;1913;-70
2023/02/09 12:10:32;;;;;;;;;;;19.40;60.90;;;;;;5042554;28;1231;-71
2023/02/09 12:12:58;;;;;;;;;;;19.40;60.90;;;;;;5040375;28;901;-70
2023/02/09 12:15:24;;;;;;;;;;;19.40;60.90;;;;;;5040406;28;780;-69
2023/02/09 12:17:51;;;;;;;;;;;19.40;60.90;;;;;;5073005;28;875;-70
2023/02/09 12:20:24;;;;;;;;;;;19.40;60.90;;;;;;5072360;28;1290;-69
2023/02/09 12:23:10;;;;;;;;;;;19.40;60.90;;;;;;5042021;28;872;-70
2023/02/09 12:25:45;;;;;;;;;;;19.40;61.00;;;;;;5037045;28;1285;-69
2023/02/09 12:28:12;;;;;;;;;;;19.40;61.00;;;;;;5038598;28;1902;-69
2023/02/09 12:30:40;;;;;;;;;;;19.40;61.20;;;;;;5073753;28;1354;-69
2023/02/09 12:33:18;;;;;;;;;;;19.30;61.10;;;;;;5040714;28;1062;-70
2023/02/09 12:35:56;;;;;;;;;;;19.30;61.20;;;;;;5040585;28;1193;-70
2023/02/09 12:38:22;;;;;;;;;;;19.30;61.20;;;;;;5070211;28;1078;-70
2023/02/09 12:41:03;;;;;;;;;;;19.30;61.10;;;;;;5074727;28;1288;-71
2023/02/09 12:43:29;;;;;;;;;;;19.40;61.30;;;;;;5067185;28;1046;-70
2023/02/09 12:46:10;;;;;;;;;;;19.40;61.40;;;;;;5074195;28;857;-70
2023/02/09 12:48:48;;;;;;;;;;;19.30;61.40;;;;;;5042695;28;1910;-69
2023/02/09 12:51:32;;;;;;;;;;;19.30;61.50;;;;;;5037303;28;1225;-71
2023/02/09 12:53:58;;;;;;;;;;;19.30;61.50;;;;;;5039320;28;983;-70
2023/02/09 12:56:23;;;;;;;;;;;19.30;61.50;;;;;;5036918;28;1159;-70
2023/02/09 12:58:48;;;;;;;;;;;19.30;61.60;;;;;;5070944;28;1324;-70
2023/02/09 13:01:14;;;;;;;;;;;19.30;61.70;;;;;;5039736;28;1306;-71
2023/02/09 13:03:41;;;;;;;;;;;19.30;61.80;;;;;;5070753;28;1262;-70
2023/02/09 13:06:06;;;;;;;;;;;19.30;59.50;;;;;;5066891;28;1031;-71
2023/02/09 13:08:35;;;;;;;;;;;19.20;53.70;;;;;;5040102;28;1968;-70
2023/02/09 13:11:02;;;;;;;;;;;19.10;50.20;;;;;;5041963;28;1237;-71
2023/02/09 13:13:30;;;;;;;;;;;19.00;49.20;;;;;;5067641;28;910;-69
2023/02/09 13:15:59;;;;;;;;;;;18.90;48.50;;;;;;5038103;28;895;-70
2023/02/09 13:18:30;;;;;;;;;;;18.80;48.30;;;;;;5040132;28;819;-70
2023/02/09 13:21:08;;;;;;;;;;;18.70;48.70;;;;;;5069841;28;1334;-70
2023/02/09 13:23:42;;;;;;;;;;;18.70;49.70;;;;;;5037344;28;830;-70
2023/02/09 13:26:26;;;;;;;;;;;18.70;50.50;;;;;;5039524;28;923;-71
2023/02/09 13:29:08;;;;;;;;;;;18.70;51.00;;;;;;5071607;28;1898;-71
2023/02/09 13:31:34;;;;;;;;;;;18.60;51.70;;;;;;5067917;28;1063;-71
2023/02/09 13:34:02;;;;;;;;;;;18.60;52.30;;;;;;5073263;28;988;-71
2023/02/09 13:36:39;;;;;;;;;;;18.60;52.80;;;;;;5054790;28;1299;-71
2023/02/09 13:39:05;;;;;;;;;;;18.60;53.30;;;;;;5069202;28;1353;-71
2023/02/09 13:41:34;;;;;;;;;;;18.60;53.70;;;;;;5069378;28;895;-71
2023/02/09 13:43:59;;;;;;;;;;;18.50;54.10;;;;;;5069203;28;972;-70
2023/02/09 13:46:26;;;;;;;;;;;18.50;54.40;;;;;;5069749;28;996;-70
2023/02/09 13:48:51;;;;;;;;;;;18.50;54.70;;;;;;5070173;28;1969;-71
2023/02/09 13:51:17;;;;;;;;;;;18.50;55.00;;;;;;5067451;28;1626;-71
2023/02/09 13:53:56;;;;;;;;;;;18.50;55.20;;;;;;5071779;28;1032;-69
2023/02/09 13:56:21;;;;;;;;;;;18.50;55.40;;;;;;5055577;28;1369;-71
2023/02/09 13:58:47;;;;;;;;;;;18.50;55.70;;;;;;5066343;28;828;-70
2023/02/09 14:01:13;;;;;;;;;;;18.40;55.80;;;;;;5072743;28;1345;-69
2023/02/09 14:03:43;;;;;;;;;;;18.40;56.00;;;;;;5070274;28;1348;-70
2023/02/09 14:06:17;;;;;;;;;;;18.40;56.10;;;;;;5070346;28;1372;-70
2023/02/09 14:08:43;;;;;;;;;;;18.40;56.30;;;;;;5041598;28;1948;-70
2023/02/09 14:11:27;;;;;;;;;;;18.40;56.40;;;;;;5041658;28;1345;-70
2023/02/09 14:13:53;;;;;;;;;;;18.40;56.60;;;;;;5043052;28;1118;-70
2023/02/09 14:16:19;;;;;;;;;;;18.30;56.60;;;;;;5073500;28;822;-70
2023/02/09 14:18:54;;;;;;;;;;;18.30;56.70;;;;;;5040586;28;880;-70
2023/02/09 14:21:23;;;;;;;;;;;18.30;56.90;;;;;;5074992;28;1017;-70
2023/02/09 14:23:55;;;;;;;;;;;18.30;57.00;;;;;;5074389;28;1154;-71
2023/02/09 14:26:23;;;;;;;;;;;18.30;57.10;;;;;;5040780;28;875;-69
2023/02/09 14:28:53;;;;;;;;;;;18.30;57.20;;;;;;5073067;28;2571;-70
2023/02/09 14:31:19;;;;;;;;;;;18.30;57.20;;;;;;5075341;28;1279;-70
2023/02/09 14:33:48;;;;;;;;;;;18.30;57.30;;;;;;5069596;28;1281;-71
2023/02/09 14:36:24;;;;;;;;;;;18.30;57.40;;;;;;5077040;28;1471;-70
2023/02/09 14:38:50;;;;;;;;;;;18.30;57.50;;;;;;5073821;28;859;-70
2023/02/09 14:41:26;;;;;;;;;;;18.20;57.50;;;;;;5072773;28;1332;-70
2023/02/09 14:44:06;;;;;;;;;;;18.20;57.60;;;;;;5072922;28;870;-70
2023/02/09 14:46:48;;;;;;;;;;;18.20;57.70;;;;;;5041502;28;2062;-69
2023/02/09 14:49:13;;;;;;;;;;;18.20;57.70;;;;;;5044239;28;1991;-70
2023/02/09 14:51:39;;;;;;;;;;;18.20;57.80;;;;;;5037102;28;1355;-70
2023/02/09 14:54:05;;;;;;;;;;;18.20;57.90;;;;;;5073944;28;958;-69